createdAt,value
2018-06-16T00:00:51.299Z,1.33
2018-06-16T00:03:20.971Z,1.60
2018-06-16T00:05:50.664Z,1.40
2018-06-16T00:08:20.552Z,1.60
2018-06-16T00:10:50.116Z,1.30
2018-06-16T00:13:19.815Z,1.97
2018-06-16T00:15:50.475Z,1.57
2018-06-16T00:18:20.186Z,1.73
2018-06-16T00:20:49.884Z,1.60
2018-06-16T00:23:19.541Z,1.70
2018-06-16T00:25:49.174Z,1.20
2018-06-16T00:28:18.806Z,1.90
2018-06-16T00:30:48.457Z,1.50
2018-06-16T00:33:18.204Z,1.60
2018-06-16T00:35:47.881Z,1.47
2018-06-16T00:38:17.554Z,1.73
2018-06-16T00:40:47.155Z,1.83
2018-06-16T00:43:16.741Z,2.03
2018-06-16T00:45:46.456Z,1.80
2018-06-16T00:48:16.174Z,1.83
2018-06-16T00:50:45.788Z,1.97
2018-06-16T00:53:15.538Z,1.60
2018-06-16T00:55:45.135Z,1.77
2018-06-16T00:58:14.836Z,2.20
2018-06-16T01:00:44.532Z,1.80
2018-06-16T01:03:14.175Z,2.20
2018-06-16T01:05:43.889Z,1.53
2018-06-16T01:08:13.555Z,2.00
2018-06-16T01:10:43.220Z,1.50
2018-06-16T01:13:12.917Z,1.57
2018-06-16T01:15:42.629Z,1.77
2018-06-16T01:18:12.288Z,1.90
2018-06-16T01:20:41.964Z,1.53
2018-06-16T01:23:11.668Z,1.83
2018-06-16T01:25:41.380Z,1.53
2018-06-16T01:28:11.041Z,1.87
2018-06-16T01:30:40.749Z,1.50
2018-06-16T01:33:10.435Z,1.87
2018-06-16T01:35:40.102Z,1.40
2018-06-16T01:38:09.777Z,1.50
2018-06-16T01:40:39.457Z,1.60
2018-06-16T01:43:09.114Z,2.00
2018-06-16T01:45:38.703Z,1.60
2018-06-16T01:48:08.385Z,1.90
2018-06-16T01:50:38.061Z,1.90
2018-06-16T01:53:07.698Z,2.22
2018-06-16T01:55:37.410Z,1.70
2018-06-16T01:58:07.091Z,1.70
2018-06-16T02:00:36.768Z,1.93
2018-06-16T02:03:06.414Z,1.73
2018-06-16T02:05:36.132Z,1.87
2018-06-16T02:08:05.784Z,1.50
2018-06-16T02:10:35.484Z,1.97
2018-06-16T02:13:05.133Z,2.00
2018-06-16T02:15:34.760Z,2.00
2018-06-16T02:18:04.468Z,1.80
2018-06-16T02:20:34.126Z,1.90
2018-06-16T02:23:03.833Z,1.70
2018-06-16T02:25:33.475Z,1.70
2018-06-16T02:28:03.201Z,1.70
2018-06-16T02:30:32.897Z,1.80
2018-06-16T02:33:09.303Z,1.90
2018-06-16T02:35:38.961Z,2.40
2018-06-16T02:38:08.611Z,1.93
2018-06-16T02:40:38.273Z,2.00
2018-06-16T02:43:07.917Z,2.00
2018-06-16T02:45:37.618Z,2.30
2018-06-16T02:48:07.313Z,2.33
2018-06-16T02:50:37.127Z,1.77
2018-06-16T02:53:06.673Z,2.50
2018-06-16T02:55:36.409Z,2.03
2018-06-16T02:58:06.104Z,2.20
2018-06-16T03:00:35.787Z,2.20
2018-06-16T03:03:05.455Z,2.10
2018-06-16T03:05:35.103Z,2.30
2018-06-16T03:08:04.899Z,2.60
2018-06-16T03:10:34.563Z,1.50
2018-06-16T03:13:04.247Z,2.30
2018-06-16T03:15:33.839Z,2.23
2018-06-16T03:18:03.471Z,2.07
2018-06-16T03:20:33.241Z,2.00
2018-06-16T03:23:02.858Z,1.70
2018-06-16T03:25:32.589Z,1.80
2018-06-16T03:28:02.352Z,1.93
2018-06-16T03:30:32.040Z,1.80
2018-06-16T03:33:01.720Z,1.70
2018-06-16T03:35:31.320Z,2.13
2018-06-16T03:38:00.973Z,1.57
2018-06-16T03:40:30.677Z,2.20
2018-06-16T03:43:00.309Z,1.80
2018-06-16T03:45:29.957Z,2.00
2018-06-16T03:47:59.608Z,1.70
2018-06-16T03:50:29.289Z,1.90
2018-06-16T03:52:58.924Z,2.13
2018-06-16T03:55:28.539Z,1.90
2018-06-16T03:57:58.241Z,1.80
2018-06-16T04:00:27.924Z,1.87
2018-06-16T04:02:57.574Z,1.90
2018-06-16T04:05:27.223Z,2.07
2018-06-16T04:07:56.832Z,2.10
2018-06-16T04:10:26.521Z,1.70
2018-06-16T04:12:56.170Z,1.67
2018-06-16T04:15:25.836Z,1.90
2018-06-16T04:17:55.451Z,2.30
2018-06-16T04:20:25.087Z,2.00
2018-06-16T04:22:54.748Z,2.00
2018-06-16T04:25:24.427Z,2.30
2018-06-16T04:27:54.025Z,1.90
2018-06-16T04:30:23.634Z,1.83
2018-06-16T04:32:53.246Z,2.20
2018-06-16T04:35:22.814Z,2.13
2018-06-16T04:37:52.461Z,1.77
2018-06-16T04:40:22.136Z,1.60
2018-06-16T04:42:51.833Z,1.73
2018-06-16T04:45:21.478Z,1.53
2018-06-16T04:47:51.143Z,1.83
2018-06-16T04:50:20.761Z,2.00
2018-06-16T04:52:50.403Z,2.47
2018-06-16T04:55:20.170Z,2.33
2018-06-16T04:57:49.807Z,2.17
2018-06-16T05:00:19.481Z,2.10
2018-06-16T05:02:52.040Z,2.30
2018-06-16T05:05:21.663Z,2.57
2018-06-16T05:07:51.303Z,1.80
2018-06-16T05:10:20.957Z,2.40
2018-06-16T05:12:50.690Z,2.37
2018-06-16T05:15:20.295Z,2.00
2018-06-16T05:17:49.958Z,2.27
2018-06-16T05:20:19.655Z,2.40
2018-06-16T05:22:49.305Z,1.93
2018-06-16T05:25:18.946Z,2.03
2018-06-16T05:27:48.609Z,2.20
2018-06-16T05:30:18.260Z,2.60
2018-06-16T05:32:47.919Z,2.62
2018-06-16T05:35:17.246Z,2.20
2018-06-16T05:37:46.879Z,2.43
2018-06-16T05:40:16.560Z,2.20
2018-06-16T05:42:46.291Z,2.40
2018-06-16T05:45:19.336Z,1.90
2018-06-16T05:47:49.002Z,2.47
2018-06-16T05:50:18.616Z,2.10
2018-06-16T05:52:48.330Z,2.00
2018-06-16T05:55:18.106Z,2.30
2018-06-16T05:57:47.833Z,2.57
2018-06-16T06:00:17.448Z,2.90
2018-06-16T06:02:47.036Z,2.83
2018-06-16T06:05:16.715Z,3.77
2018-06-16T06:07:47.227Z,2.80
2018-06-16T06:10:16.870Z,3.30
2018-06-16T06:12:47.827Z,2.85
2018-06-16T06:15:17.527Z,3.33
2018-06-16T06:17:48.352Z,4.00
2018-06-16T06:20:18.011Z,4.17
2018-06-16T06:22:47.671Z,4.17
2018-06-16T06:25:17.329Z,4.20
2018-06-16T06:27:47.002Z,3.37
2018-06-16T06:30:16.649Z,4.17
2018-06-16T06:32:46.373Z,4.10
2018-06-16T06:35:16.066Z,4.93
2018-06-16T06:37:45.769Z,4.40
2018-06-16T06:40:15.396Z,5.40
2018-06-16T06:42:45.123Z,4.33
2018-06-16T06:45:14.804Z,5.07
2018-06-16T06:47:44.584Z,4.43
2018-06-16T06:50:14.402Z,3.87
2018-06-16T06:52:44.115Z,5.10
2018-06-16T06:55:13.689Z,4.27
2018-06-16T06:57:43.368Z,4.47
2018-06-16T07:00:13.039Z,4.07
2018-06-16T07:02:42.756Z,4.00
2018-06-16T07:05:12.448Z,4.10
2018-06-16T07:07:42.071Z,3.97
2018-06-16T07:10:11.780Z,4.30
2018-06-16T07:12:41.469Z,3.90
2018-06-16T07:15:11.127Z,4.20
2018-06-16T07:17:40.903Z,5.13
2018-06-16T07:20:10.632Z,5.47
2018-06-16T07:22:40.316Z,7.20
2018-06-16T07:25:09.968Z,6.07
2018-06-16T07:27:39.698Z,5.50
2018-06-16T07:30:09.378Z,5.30
2018-06-16T07:32:39.063Z,4.47
2018-06-16T07:35:08.814Z,5.87
2018-06-16T07:37:38.486Z,5.40
2018-06-16T07:40:08.239Z,6.33
2018-06-16T07:42:37.845Z,5.67
2018-06-16T07:45:07.606Z,5.07
2018-06-16T07:47:37.249Z,4.43
2018-06-16T07:50:06.831Z,4.23
2018-06-16T07:52:36.522Z,3.10
2018-06-16T07:55:06.386Z,4.00
2018-06-16T07:57:35.041Z,4.97
2018-06-16T08:00:05.344Z,3.67
2018-06-16T08:02:34.993Z,4.33
2018-06-16T08:05:04.600Z,3.63
2018-06-16T08:07:34.312Z,3.57
2018-06-16T08:10:04.052Z,4.17
2018-06-16T08:12:33.735Z,3.70
2018-06-16T08:15:03.091Z,3.80
2018-06-16T08:17:32.453Z,3.53
2018-06-16T08:20:01.769Z,3.03
2018-06-16T08:22:31.122Z,4.50
2018-06-16T08:25:00.439Z,4.77
2018-06-16T08:27:29.781Z,2.90
2018-06-16T08:29:59.124Z,3.00
2018-06-16T08:32:28.476Z,2.30
2018-06-16T08:34:57.889Z,2.73
2018-06-16T08:37:27.261Z,2.73
2018-06-16T08:39:56.756Z,4.60
2018-06-16T08:42:26.202Z,3.80
2018-06-16T08:44:55.521Z,2.70
2018-06-16T08:47:24.874Z,2.97
2018-06-16T08:49:54.218Z,2.60
2018-06-16T08:52:23.551Z,2.70
2018-06-16T08:54:52.976Z,3.10
2018-06-16T08:57:22.341Z,2.20
2018-06-16T08:59:51.669Z,1.90
2018-06-16T09:02:20.979Z,1.97
2018-06-16T09:04:50.455Z,1.93
2018-06-16T09:07:19.781Z,2.10
2018-06-16T09:09:49.112Z,2.10
2018-06-16T09:12:18.478Z,2.00
2018-06-16T09:14:47.784Z,2.10
2018-06-16T09:17:17.154Z,1.90
2018-06-16T09:19:46.561Z,1.90
2018-06-16T09:22:15.918Z,2.40
2018-06-16T09:24:45.241Z,1.90
2018-06-16T09:27:14.595Z,1.33
2018-06-16T09:29:44.266Z,2.03
2018-06-16T09:32:13.580Z,1.50
2018-06-16T09:34:42.936Z,1.57
2018-06-16T09:37:12.269Z,1.80
2018-06-16T09:39:41.581Z,1.50
2018-06-16T09:42:10.912Z,1.40
2018-06-16T09:44:40.284Z,1.40
2018-06-16T09:47:09.692Z,1.70
2018-06-16T09:49:39.024Z,1.80
2018-06-16T09:52:08.339Z,1.50
2018-06-16T09:54:37.679Z,1.80
2018-06-16T09:57:07.004Z,1.63
2018-06-16T09:59:36.330Z,1.53
2018-06-16T10:02:05.832Z,1.60
2018-06-16T10:04:35.187Z,1.73
2018-06-16T10:07:04.542Z,2.73
2018-06-16T10:09:33.879Z,2.23
2018-06-16T10:12:03.215Z,1.77
2018-06-16T10:14:32.537Z,2.00
2018-06-16T10:17:01.865Z,1.73
2018-06-16T10:19:31.196Z,1.60
2018-06-16T10:22:00.613Z,1.60
2018-06-16T10:24:29.967Z,1.50
2018-06-16T10:26:59.350Z,1.70
2018-06-16T10:29:28.660Z,1.30
2018-06-16T10:31:58.006Z,1.50
2018-06-16T10:34:27.343Z,1.30
2018-06-16T10:36:56.699Z,1.30
2018-06-16T10:39:26.012Z,1.20
2018-06-16T10:41:55.345Z,1.57
2018-06-16T10:44:24.656Z,1.30
2018-06-16T10:46:54.016Z,1.53
2018-06-16T10:49:23.363Z,1.60
2018-06-16T10:51:52.671Z,1.27
2018-06-16T10:54:21.984Z,1.30
2018-06-16T10:56:51.047Z,1.77
2018-06-16T10:59:20.384Z,1.63
2018-06-16T11:01:49.625Z,1.30
2018-06-16T11:04:18.961Z,1.30
2018-06-16T11:06:48.552Z,1.30
2018-06-16T11:09:17.973Z,1.63
2018-06-16T11:11:47.252Z,1.90
2018-06-16T11:14:16.590Z,1.87
2018-06-16T11:16:45.940Z,1.07
2018-06-16T11:19:18.985Z,1.13
2018-06-16T11:21:48.037Z,1.10
2018-06-16T11:24:17.371Z,0.93
2018-06-16T11:26:46.694Z,1.03
2018-06-16T11:29:16.031Z,1.30
2018-06-16T11:31:45.361Z,1.10
2018-06-16T11:34:14.696Z,1.60
2018-06-16T11:36:44.024Z,1.70
2018-06-16T11:39:13.365Z,1.30
2018-06-16T11:41:42.704Z,1.30
2018-06-16T11:44:12.036Z,1.20
2018-06-16T11:46:41.360Z,1.37
2018-06-16T11:49:10.702Z,1.10
2018-06-16T11:51:40.020Z,1.20
2018-06-16T11:54:09.364Z,0.98
2018-06-16T11:56:38.702Z,1.20
2018-06-16T11:59:08.016Z,0.80
2018-06-16T12:01:37.326Z,0.97
2018-06-16T12:04:06.696Z,1.20
2018-06-16T12:06:36.036Z,1.17
2018-06-16T12:09:09.795Z,0.90
2018-06-16T12:11:39.135Z,1.23
2018-06-16T12:14:09.261Z,1.10
2018-06-16T12:16:38.944Z,1.30
2018-06-16T12:19:08.596Z,1.10
2018-06-16T12:21:37.973Z,1.50
2018-06-16T12:24:07.592Z,1.40
2018-06-16T12:26:36.916Z,1.53
2018-06-16T12:29:06.260Z,1.20
2018-06-16T12:31:35.612Z,1.10
2018-06-16T12:34:04.940Z,1.00
2018-06-16T12:36:34.261Z,0.90
2018-06-16T12:39:03.896Z,1.20
2018-06-16T12:41:33.208Z,0.90
2018-06-16T12:44:02.555Z,1.20
2018-06-16T12:46:31.882Z,1.03
2018-06-16T12:49:01.200Z,1.47
2018-06-16T12:51:30.512Z,1.40
2018-06-16T12:53:59.848Z,1.30
2018-06-16T12:56:29.206Z,1.03
2018-06-16T12:58:58.564Z,1.20
2018-06-16T13:01:27.912Z,1.30
2018-06-16T13:03:57.270Z,1.00
2018-06-16T13:06:26.591Z,1.03
2018-06-16T13:08:55.924Z,1.00
2018-06-16T13:11:26.247Z,1.20
2018-06-16T13:13:56.177Z,1.10
2018-06-16T13:16:25.591Z,1.00
2018-06-16T13:18:55.257Z,1.10
2018-06-16T13:21:24.584Z,1.50
2018-06-16T13:23:53.988Z,1.30
2018-06-16T13:26:23.321Z,1.20
2018-06-16T13:28:52.644Z,2.33
2018-06-16T13:31:21.988Z,1.20
2018-06-16T13:33:51.325Z,1.27
2018-06-16T13:36:20.766Z,1.30
2018-06-16T13:38:50.220Z,1.07
2018-06-16T13:41:19.608Z,1.30
2018-06-16T13:43:48.953Z,1.27
2018-06-16T13:46:18.284Z,1.07
2018-06-16T13:48:47.624Z,1.33
2018-06-16T13:51:16.947Z,1.07
2018-06-16T13:53:46.256Z,1.27
2018-06-16T13:56:15.593Z,1.10
2018-06-16T13:58:44.948Z,1.10
2018-06-16T14:01:14.273Z,1.03
2018-06-16T14:03:43.695Z,1.30
2018-06-16T14:06:13.039Z,1.50
2018-06-16T14:08:42.398Z,1.50
2018-06-16T14:11:11.753Z,1.43
2018-06-16T14:13:41.139Z,1.17
2018-06-16T14:16:10.509Z,1.40
2018-06-16T14:18:39.884Z,1.53
2018-06-16T14:21:09.244Z,1.47
2018-06-16T14:23:38.734Z,1.60
2018-06-16T14:26:08.107Z,1.73
2018-06-16T14:28:37.468Z,1.43
2018-06-16T14:31:06.829Z,1.43
2018-06-16T14:33:36.181Z,1.60
2018-06-16T14:36:05.926Z,1.20
2018-06-16T14:38:35.291Z,1.40
2018-06-16T14:41:04.646Z,1.30
2018-06-16T14:43:34.028Z,1.50
2018-06-16T14:46:03.437Z,1.37
2018-06-16T14:48:33.830Z,1.20
2018-06-16T14:51:03.202Z,1.47
2018-06-16T14:53:32.566Z,1.40
2018-06-16T14:56:01.957Z,1.30
2018-06-16T14:58:31.277Z,1.77
2018-06-16T15:01:00.656Z,1.50
2018-06-16T15:03:30.038Z,1.70
2018-06-16T15:05:59.427Z,1.40
2018-06-16T15:08:28.797Z,2.07
2018-06-16T15:10:58.150Z,3.47
2018-06-16T15:13:27.521Z,1.70
2018-06-16T15:15:56.881Z,1.93
2018-06-16T15:18:26.227Z,1.63
2018-06-16T15:20:55.577Z,1.40
2018-06-16T15:23:24.969Z,1.67
2018-06-16T15:25:54.403Z,1.67
2018-06-16T15:28:23.751Z,1.60
2018-06-16T15:30:53.117Z,1.60
2018-06-16T15:33:22.499Z,1.70
2018-06-16T15:35:51.871Z,1.90
2018-06-16T15:38:21.216Z,1.60
2018-06-16T15:40:50.605Z,1.73
2018-06-16T15:43:19.921Z,1.70
2018-06-16T15:45:49.367Z,2.57
2018-06-16T15:48:18.708Z,2.57
2018-06-16T15:50:48.049Z,2.33
2018-06-16T15:53:17.388Z,2.20
2018-06-16T15:55:46.772Z,2.10
2018-06-16T15:58:17.208Z,1.40
2018-06-16T16:00:46.539Z,3.42
2018-06-16T16:03:15.891Z,2.30
2018-06-16T16:05:45.312Z,2.27
2018-06-16T16:08:14.577Z,2.40
2018-06-16T16:10:43.889Z,1.70
2018-06-16T16:13:13.270Z,2.10
2018-06-16T16:15:42.619Z,2.03
2018-06-16T16:18:12.017Z,2.40
2018-06-16T16:20:41.377Z,4.63
2018-06-16T16:23:10.762Z,2.20
2018-06-16T16:25:40.265Z,2.23
2018-06-16T16:28:09.573Z,1.50
2018-06-16T16:30:38.916Z,1.97
2018-06-16T16:33:08.253Z,2.10
2018-06-16T16:35:37.586Z,2.37
2018-06-16T16:38:06.997Z,2.33
2018-06-16T16:40:36.332Z,2.70
2018-06-16T16:43:05.687Z,2.23
2018-06-16T16:45:35.021Z,2.03
2018-06-16T16:48:04.438Z,2.50
2018-06-16T16:50:33.812Z,1.93
2018-06-16T16:53:03.225Z,1.70
2018-06-16T16:55:32.744Z,1.47
2018-06-16T16:58:02.089Z,2.80
2018-06-16T17:00:31.475Z,3.00
2018-06-16T17:03:00.828Z,3.00
2018-06-16T17:05:30.205Z,1.77
2018-06-16T17:07:59.595Z,1.97
2018-06-16T17:10:28.920Z,2.10
2018-06-16T17:12:58.393Z,1.60
2018-06-16T17:15:27.791Z,1.80
2018-06-16T17:17:57.160Z,2.50
2018-06-16T17:20:26.540Z,2.03
2018-06-16T17:22:55.928Z,1.70
2018-06-16T17:25:25.373Z,1.53
2018-06-16T17:27:54.696Z,1.53
2018-06-16T17:30:24.219Z,1.53
2018-06-16T17:32:53.584Z,1.27
2018-06-16T17:35:23.120Z,1.37
2018-06-16T17:37:53.088Z,1.10
2018-06-16T17:40:22.740Z,1.53
2018-06-16T17:42:52.267Z,1.33
2018-06-16T17:45:22.148Z,1.37
2018-06-16T17:47:51.509Z,1.30
2018-06-16T17:50:20.848Z,0.97
2018-06-16T17:52:50.232Z,1.47
2018-06-16T17:55:19.555Z,1.30
2018-06-16T17:57:48.880Z,1.20
2018-06-16T18:00:18.245Z,1.30
2018-06-16T18:02:47.673Z,1.33
2018-06-16T18:05:17.037Z,1.93
2018-06-16T18:07:46.375Z,1.70
2018-06-16T18:10:15.732Z,1.60
2018-06-16T18:12:45.239Z,2.00
2018-06-16T18:15:14.569Z,1.43
2018-06-16T18:17:43.928Z,2.40
2018-06-16T18:20:13.192Z,1.67
2018-06-16T18:22:42.556Z,1.50
2018-06-16T18:25:11.884Z,1.77
2018-06-16T18:27:47.797Z,1.47
2018-06-16T18:30:17.367Z,2.00
2018-06-16T18:32:46.671Z,2.60
2018-06-16T18:35:16.000Z,2.40
2018-06-16T18:37:45.372Z,1.83
2018-06-16T18:40:14.655Z,1.70
2018-06-16T18:42:43.973Z,2.10
2018-06-16T18:45:13.343Z,1.97
2018-06-16T18:47:42.660Z,2.20
2018-06-16T18:50:11.993Z,2.00
2018-06-16T18:52:41.305Z,2.20
2018-06-16T18:55:10.612Z,2.30
2018-06-16T18:57:39.953Z,1.97
2018-06-16T19:00:09.276Z,2.40
2018-06-16T19:02:38.580Z,2.50
2018-06-16T19:05:07.921Z,2.03
2018-06-16T19:07:37.243Z,2.50
2018-06-16T19:10:06.588Z,2.40
2018-06-16T19:12:35.917Z,2.90
2018-06-16T19:15:05.262Z,2.23
2018-06-16T19:17:34.593Z,2.00
2018-06-16T19:20:03.968Z,2.87
2018-06-16T19:22:33.331Z,2.40
2018-06-16T19:25:02.881Z,2.40
2018-06-16T19:27:32.208Z,2.67
2018-06-16T19:30:01.564Z,2.23
2018-06-16T19:32:30.912Z,3.17
2018-06-16T19:35:00.224Z,2.70
2018-06-16T19:37:29.560Z,2.30
2018-06-16T19:39:58.920Z,2.47
2018-06-16T19:42:28.241Z,2.80
2018-06-16T19:44:57.578Z,2.83
2018-06-16T19:47:27.115Z,2.80
2018-06-16T19:49:56.423Z,2.80
2018-06-16T19:52:25.752Z,2.30
2018-06-16T19:54:55.549Z,2.70
2018-06-16T19:57:24.875Z,5.67
2018-06-16T19:59:54.225Z,5.77
2018-06-16T20:02:27.143Z,4.80
2018-06-16T20:04:56.479Z,4.70
2018-06-16T20:07:25.832Z,4.00
2018-06-16T20:09:55.247Z,3.50
2018-06-16T20:12:24.637Z,2.77
2018-06-16T20:14:54.033Z,2.43
2018-06-16T20:17:23.407Z,2.83
2018-06-16T20:19:52.739Z,3.33
2018-06-16T20:22:22.126Z,2.90
2018-06-16T20:24:51.488Z,2.73
2018-06-16T20:27:20.816Z,2.50
2018-06-16T20:29:50.203Z,2.20
2018-06-16T20:32:19.528Z,3.07
2018-06-16T20:34:48.885Z,3.27
2018-06-16T20:37:18.304Z,2.70
2018-06-16T20:39:47.742Z,2.80
2018-06-16T20:42:17.036Z,2.93
2018-06-16T20:44:46.756Z,2.90
2018-06-16T20:47:16.144Z,3.07
2018-06-16T20:49:45.483Z,2.77
2018-06-16T20:52:14.852Z,2.80
2018-06-16T20:54:44.189Z,2.53
2018-06-16T20:57:13.810Z,2.70
2018-06-16T20:59:43.416Z,2.90
2018-06-16T21:02:13.110Z,2.60
2018-06-16T21:04:42.831Z,2.73
2018-06-16T21:07:12.514Z,2.70
2018-06-16T21:09:42.127Z,2.40
2018-06-16T21:12:11.822Z,2.53
2018-06-16T21:14:41.515Z,2.90
2018-06-16T21:17:11.217Z,3.17
2018-06-16T21:19:40.877Z,3.20
2018-06-16T21:22:10.542Z,2.77
2018-06-16T21:24:40.148Z,3.10
2018-06-16T21:27:09.855Z,2.80
2018-06-16T21:29:39.470Z,2.60
2018-06-16T21:32:09.160Z,2.90
2018-06-16T21:34:39.728Z,2.60
2018-06-16T21:37:09.359Z,2.77
2018-06-16T21:39:38.905Z,2.40
2018-06-16T21:42:08.855Z,2.50
2018-06-16T21:44:38.567Z,2.30
2018-06-16T21:47:08.247Z,2.53
2018-06-16T21:49:37.804Z,2.50
2018-06-16T21:52:07.740Z,2.98
2018-06-16T21:54:37.440Z,2.97
2018-06-16T21:57:07.208Z,2.90
2018-06-16T21:59:36.857Z,2.90
2018-06-16T22:02:06.846Z,3.37
2018-06-16T22:04:36.582Z,3.30
2018-06-16T22:07:05.932Z,4.00
2018-06-16T22:09:35.005Z,3.43
2018-06-16T22:12:04.332Z,3.07
2018-06-16T22:14:33.705Z,3.57
2018-06-16T22:17:03.124Z,3.40
2018-06-16T22:19:32.467Z,2.70
2018-06-16T22:22:01.816Z,2.43
2018-06-16T22:24:31.187Z,1.80
2018-06-16T22:27:00.529Z,2.60
2018-06-16T22:29:29.883Z,1.90
2018-06-16T22:31:59.192Z,2.17
2018-06-16T22:34:28.539Z,2.03
2018-06-16T22:36:57.871Z,2.07
2018-06-16T22:39:27.251Z,1.90
2018-06-16T22:41:56.605Z,2.33
2018-06-16T22:44:25.944Z,2.40
2018-06-16T22:46:55.260Z,1.93
2018-06-16T22:49:24.674Z,2.20
2018-06-16T22:51:53.996Z,2.07
2018-06-16T22:54:23.324Z,2.10
2018-06-16T22:56:52.669Z,2.17
2018-06-16T22:59:22.019Z,2.77
2018-06-16T23:01:51.342Z,3.67
2018-06-16T23:04:20.732Z,3.00
2018-06-16T23:06:50.144Z,2.23
2018-06-16T23:09:19.473Z,2.80
2018-06-16T23:11:48.879Z,2.60
2018-06-16T23:14:18.233Z,2.40
2018-06-16T23:16:47.558Z,2.00
2018-06-16T23:19:16.880Z,2.00
2018-06-16T23:21:46.212Z,2.30
2018-06-16T23:24:15.560Z,1.93
2018-06-16T23:26:44.876Z,2.53
2018-06-16T23:29:14.216Z,2.20
2018-06-16T23:31:43.565Z,2.57
2018-06-16T23:34:12.877Z,2.10
2018-06-16T23:36:42.581Z,2.77
2018-06-16T23:39:13.571Z,2.57
2018-06-16T23:41:43.239Z,2.73
2018-06-16T23:44:12.906Z,2.90
2018-06-16T23:46:42.606Z,2.10
2018-06-16T23:49:12.275Z,3.37
2018-06-16T23:51:41.917Z,2.80
2018-06-16T23:54:11.699Z,3.00
2018-06-16T23:56:41.431Z,2.03
2018-06-16T23:59:11.152Z,3.30
